createdAt,value
2022-10-23T00:00:43.823Z,9.279906
2022-10-23T00:01:43.777Z,9.279913
2022-10-23T00:02:44.294Z,9.279794
2022-10-23T00:03:43.706Z,9.279888
2022-10-23T00:04:43.689Z,9.279966
2022-10-23T00:05:44.689Z,9.279920
2022-10-23T00:06:43.678Z,9.279967
2022-10-23T00:07:43.639Z,9.279909
2022-10-23T00:08:43.609Z,9.279939
2022-10-23T00:09:43.649Z,9.279892
2022-10-23T00:10:43.596Z,9.279937
2022-10-23T00:11:43.550Z,9.279948
2022-10-23T00:12:44.509Z,9.279867
2022-10-23T00:13:43.526Z,9.279845
2022-10-23T00:14:43.489Z,9.279871
2022-10-23T00:15:43.541Z,9.279881
2022-10-23T00:16:43.462Z,9.279981
2022-10-23T00:17:43.747Z,9.279995
2022-10-23T00:18:43.402Z,9.279970
2022-10-23T00:19:43.387Z,9.279934
2022-10-23T00:20:43.398Z,9.279875
2022-10-23T00:21:43.338Z,9.279846
2022-10-23T00:22:45.082Z,9.279904
2022-10-23T00:23:43.293Z,9.279875
2022-10-23T00:24:43.285Z,9.279898
2022-10-23T00:25:43.315Z,9.279830
2022-10-23T00:26:43.237Z,9.279878
2022-10-23T00:27:43.467Z,9.279900
2022-10-23T00:28:43.204Z,9.279938
2022-10-23T00:29:43.209Z,9.279917
2022-10-23T00:30:43.185Z,9.279879
2022-10-23T00:31:43.157Z,9.279900
2022-10-23T00:32:43.119Z,9.280000
2022-10-23T00:33:43.164Z,9.279822
2022-10-23T00:34:43.089Z,9.279930
2022-10-23T00:35:43.056Z,9.279913
2022-10-23T00:36:43.056Z,9.279848
2022-10-23T00:37:43.311Z,9.279923
2022-10-23T00:38:43.014Z,9.279949
2022-10-23T00:39:42.971Z,9.279932
2022-10-23T00:40:43.037Z,9.279959
2022-10-23T00:41:42.969Z,9.280075
2022-10-23T00:42:43.206Z,9.279870
2022-10-23T00:43:42.907Z,9.279805
2022-10-23T00:44:42.891Z,9.279985
2022-10-23T00:45:43.935Z,9.279879
2022-10-23T00:46:42.838Z,9.279821
2022-10-23T00:47:42.835Z,9.279716
2022-10-23T00:48:42.807Z,9.279901
2022-10-23T00:49:42.926Z,9.279977
2022-10-23T00:50:42.778Z,9.279844
2022-10-23T00:51:43.735Z,9.279808
2022-10-23T00:52:42.862Z,9.279950
2022-10-23T00:53:43.708Z,9.279819
2022-10-23T00:54:42.689Z,9.279818
2022-10-23T00:55:42.685Z,9.279853
2022-10-23T00:56:42.646Z,9.279689
2022-10-23T00:57:42.617Z,9.279776
2022-10-23T00:58:42.609Z,9.279838
2022-10-23T00:59:42.581Z,9.280091
2022-10-23T01:00:42.773Z,9.280085
2022-10-23T01:01:42.637Z,9.279961
2022-10-23T01:02:42.826Z,9.280051
2022-10-23T01:03:42.619Z,9.280149
2022-10-23T01:04:42.479Z,9.280117
2022-10-23T01:05:42.540Z,9.280039
2022-10-23T01:06:42.447Z,9.280010
2022-10-23T01:07:42.677Z,9.280015
2022-10-23T01:08:42.526Z,9.280006
2022-10-23T01:09:42.379Z,9.279986
2022-10-23T01:10:42.405Z,9.279967
2022-10-23T01:11:42.355Z,9.279937
2022-10-23T01:12:42.322Z,9.279900
2022-10-23T01:13:42.367Z,9.279898
2022-10-23T01:14:42.294Z,9.279728
2022-10-23T01:15:42.308Z,9.279695
2022-10-23T01:16:42.278Z,9.279922
2022-10-23T01:17:44.492Z,9.279965
2022-10-23T01:18:43.222Z,9.279897
2022-10-23T01:19:42.204Z,9.279910
2022-10-23T01:20:42.217Z,9.279819
2022-10-23T01:21:42.157Z,9.279873
2022-10-23T01:22:42.284Z,9.279895
2022-10-23T01:23:42.117Z,9.279974
2022-10-23T01:24:42.095Z,9.279987
2022-10-23T01:25:42.108Z,9.279881
2022-10-23T01:26:42.057Z,9.279859
2022-10-23T01:27:42.056Z,9.279919
2022-10-23T01:28:42.022Z,9.280013
2022-10-23T01:29:42.002Z,9.279923
2022-10-23T01:31:42.989Z,9.279843
2022-10-23T01:32:42.266Z,9.279984
2022-10-23T01:33:41.944Z,9.279978
2022-10-23T01:34:41.899Z,9.280028
2022-10-23T01:35:41.874Z,9.279930
2022-10-23T01:36:41.864Z,9.280043
2022-10-23T01:37:41.837Z,9.279982
2022-10-23T01:38:41.845Z,9.280010
2022-10-23T01:39:41.815Z,9.279911
2022-10-23T01:40:41.803Z,9.279976
2022-10-23T01:41:42.763Z,9.280017
2022-10-23T01:42:42.020Z,9.280078
2022-10-23T01:43:41.711Z,9.280052
2022-10-23T01:44:41.734Z,9.280034
2022-10-23T01:45:41.701Z,9.280077
2022-10-23T01:46:41.663Z,9.279979
2022-10-23T01:47:41.927Z,9.279982
2022-10-23T01:48:41.614Z,9.280004
2022-10-23T01:49:41.596Z,9.279901
2022-10-23T01:50:41.615Z,9.280006
2022-10-23T01:51:41.553Z,9.280065
2022-10-23T01:52:41.552Z,9.279846
2022-10-23T01:53:41.517Z,9.279901
2022-10-23T01:54:41.548Z,9.279952
2022-10-23T01:56:41.470Z,9.279928
2022-10-23T01:57:41.688Z,9.280029
2022-10-23T01:58:41.416Z,9.279972
2022-10-23T01:59:41.403Z,9.279995
2022-10-23T02:00:41.400Z,9.279900
2022-10-23T02:01:41.466Z,9.279890
2022-10-23T02:02:41.338Z,9.279935
2022-10-23T02:03:41.317Z,9.279940
2022-10-23T02:04:41.297Z,9.279943
2022-10-23T02:05:41.312Z,9.279910
2022-10-23T02:06:41.268Z,9.279910
2022-10-23T02:07:41.478Z,9.279931
2022-10-23T02:08:41.212Z,9.280012
2022-10-23T02:09:41.210Z,9.279938
2022-10-23T02:10:41.198Z,9.279963
2022-10-23T02:11:41.168Z,9.279987
2022-10-23T02:12:41.137Z,9.280050
2022-10-23T02:13:41.119Z,9.279945
2022-10-23T02:14:41.091Z,9.279938
2022-10-23T02:15:41.098Z,9.279984
2022-10-23T02:16:41.067Z,9.279956
2022-10-23T02:17:41.268Z,9.279940
2022-10-23T02:18:41.007Z,9.279969
2022-10-23T02:19:40.983Z,9.279866
2022-10-23T02:20:41.032Z,9.280009
2022-10-23T02:21:40.946Z,9.280032
2022-10-23T02:22:41.219Z,9.280010
2022-10-23T02:23:40.909Z,9.280035
2022-10-23T02:24:40.890Z,9.279944
2022-10-23T02:25:40.898Z,9.279944
2022-10-23T02:26:40.849Z,9.279867
2022-10-23T02:27:40.839Z,9.279852
2022-10-23T02:28:40.807Z,9.279858
2022-10-23T02:29:40.794Z,9.279859
2022-10-23T02:30:40.808Z,9.279824
2022-10-23T02:31:40.763Z,9.279969
2022-10-23T02:32:41.012Z,9.279910
2022-10-23T02:33:40.718Z,9.279944
2022-10-23T02:34:40.718Z,9.279948
2022-10-23T02:35:40.707Z,9.279913
2022-10-23T02:36:40.650Z,9.279860
2022-10-23T02:37:40.901Z,9.279787
2022-10-23T02:38:40.637Z,9.279928
2022-10-23T02:39:40.607Z,9.279952
2022-10-23T02:40:40.600Z,9.279677
2022-10-23T02:41:40.554Z,9.279909
2022-10-23T02:42:40.529Z,9.279821
2022-10-23T02:43:40.508Z,9.279801
2022-10-23T02:44:40.489Z,9.279882
2022-10-23T02:46:40.455Z,9.279945
2022-10-23T02:47:40.655Z,9.279843
2022-10-23T02:48:40.419Z,9.279961
2022-10-23T02:49:40.405Z,9.279956
2022-10-23T02:50:40.397Z,9.279947
2022-10-23T02:51:40.354Z,9.279876
2022-10-23T02:52:40.357Z,9.279898
2022-10-23T02:53:40.342Z,9.279895
2022-10-23T02:54:40.296Z,9.279840
2022-10-23T02:55:40.299Z,9.279807
2022-10-23T02:56:40.258Z,9.279891
2022-10-23T02:57:40.391Z,9.279895
2022-10-23T02:58:40.223Z,9.279927
2022-10-23T02:59:40.195Z,9.279947
2022-10-23T03:00:40.210Z,9.279881
2022-10-23T03:01:40.273Z,9.279865
2022-10-23T03:02:40.143Z,9.279756
2022-10-23T03:03:40.120Z,9.279952
2022-10-23T03:04:41.066Z,9.280010
2022-10-23T03:05:40.105Z,9.279830
2022-10-23T03:06:40.073Z,9.279997
2022-10-23T03:07:40.268Z,9.280116
2022-10-23T03:08:40.028Z,9.279935
2022-10-23T03:09:40.010Z,9.280014
2022-10-23T03:10:41.050Z,9.279978
2022-10-23T03:11:39.961Z,9.279854
2022-10-23T03:12:40.250Z,9.279896
2022-10-23T03:13:39.928Z,9.279865
2022-10-23T03:14:39.909Z,9.279908
2022-10-23T03:15:39.909Z,9.279933
2022-10-23T03:16:39.872Z,9.279806
2022-10-23T03:17:39.855Z,9.279777
2022-10-23T03:18:39.822Z,9.279868
2022-10-23T03:19:39.813Z,9.279869
2022-10-23T03:20:39.828Z,9.279950
2022-10-23T03:21:39.760Z,9.279828
2022-10-23T03:22:40.022Z,9.279751
2022-10-23T03:23:39.723Z,9.279717
2022-10-23T03:24:39.707Z,9.279863
2022-10-23T03:25:39.718Z,9.279872
2022-10-23T03:26:39.667Z,9.279840
2022-10-23T03:27:39.661Z,9.279973
2022-10-23T03:28:39.632Z,9.279965
2022-10-23T03:29:39.613Z,9.279975
2022-10-23T03:30:39.619Z,9.279925
2022-10-23T03:31:39.570Z,9.279819
2022-10-23T03:32:39.698Z,9.279827
2022-10-23T03:33:39.550Z,9.279885
2022-10-23T03:34:39.512Z,9.279856
2022-10-23T03:35:39.548Z,9.279835
2022-10-23T03:36:39.468Z,9.279825
2022-10-23T03:37:39.697Z,9.279767
2022-10-23T03:38:39.434Z,9.279881
2022-10-23T03:39:39.415Z,9.279840
2022-10-23T03:40:39.424Z,9.279824
2022-10-23T03:41:39.378Z,9.279860
2022-10-23T03:42:39.355Z,9.279874
2022-10-23T03:43:39.344Z,9.279883
2022-10-23T03:44:39.318Z,9.279899
2022-10-23T03:45:39.329Z,9.279941
2022-10-23T03:46:39.286Z,9.279899
2022-10-23T03:47:39.337Z,9.279880
2022-10-23T03:48:39.245Z,9.279928
2022-10-23T03:49:39.224Z,9.279874
2022-10-23T03:50:39.229Z,9.279921
2022-10-23T03:51:39.185Z,9.279837
2022-10-23T03:52:39.411Z,9.280025
2022-10-23T03:53:39.156Z,9.280031
2022-10-23T03:54:39.155Z,9.279878
2022-10-23T03:55:39.129Z,9.279886
2022-10-23T03:56:39.089Z,9.279880
2022-10-23T03:57:39.058Z,9.279821
2022-10-23T03:58:39.041Z,9.279885
2022-10-23T03:59:39.020Z,9.279785
2022-10-23T04:00:39.097Z,9.279902
2022-10-23T04:01:39.033Z,9.280001
2022-10-23T04:02:39.023Z,9.279895
2022-10-23T04:03:38.960Z,9.279815
2022-10-23T04:04:38.988Z,9.279884
2022-10-23T04:05:38.925Z,9.279813
2022-10-23T04:06:38.906Z,9.279960
2022-10-23T04:07:38.868Z,9.279922
2022-10-23T04:08:38.845Z,9.279811
2022-10-23T04:09:38.823Z,9.279807
2022-10-23T04:10:38.840Z,9.279819
2022-10-23T04:11:38.810Z,9.279841
2022-10-23T04:12:39.886Z,9.279866
2022-10-23T04:13:38.746Z,9.279968
2022-10-23T04:14:38.747Z,9.279910
2022-10-23T04:15:38.736Z,9.279880
2022-10-23T04:16:38.711Z,9.279921
2022-10-23T04:17:38.666Z,9.279936
2022-10-23T04:18:38.646Z,9.279951
2022-10-23T04:19:38.634Z,9.279927
2022-10-23T04:20:38.632Z,9.279944
2022-10-23T04:21:38.595Z,9.279936
2022-10-23T04:22:38.564Z,9.279826
2022-10-23T04:23:38.572Z,9.279898
2022-10-23T04:24:38.529Z,9.279931
2022-10-23T04:25:38.597Z,9.279975
2022-10-23T04:26:38.485Z,9.279955
2022-10-23T04:27:38.495Z,9.279881
2022-10-23T04:28:38.448Z,9.279883
2022-10-23T04:29:38.442Z,9.279868
2022-10-23T04:30:38.443Z,9.279929
2022-10-23T04:31:38.383Z,9.279899
2022-10-23T04:32:38.367Z,9.279902
2022-10-23T04:33:38.344Z,9.279902
2022-10-23T04:34:38.331Z,9.279960
2022-10-23T04:35:38.339Z,9.280075
2022-10-23T04:36:38.338Z,9.279937
2022-10-23T04:37:38.270Z,9.280006
2022-10-23T04:38:38.252Z,9.280071
2022-10-23T04:39:38.234Z,9.280097
2022-10-23T04:40:38.250Z,9.280135
2022-10-23T04:41:38.186Z,9.280016
2022-10-23T04:42:38.189Z,9.280053
2022-10-23T04:43:38.187Z,9.280035
2022-10-23T04:44:38.130Z,9.280001
2022-10-23T04:45:38.166Z,9.280042
2022-10-23T04:46:38.093Z,9.280044
2022-10-23T04:47:38.069Z,9.280025
2022-10-23T04:48:38.046Z,9.280103
2022-10-23T04:49:38.034Z,9.280130
2022-10-23T04:50:38.064Z,9.280052
2022-10-23T04:51:37.988Z,9.280038
2022-10-23T04:52:37.975Z,9.280034
2022-10-23T04:53:37.948Z,9.280075
2022-10-23T04:54:37.966Z,9.280072
2022-10-23T04:55:37.957Z,9.279917
2022-10-23T04:56:37.931Z,9.280010
2022-10-23T04:57:37.867Z,9.279968
2022-10-23T04:58:37.861Z,9.280064
2022-10-23T04:59:37.847Z,9.280066
2022-10-23T05:00:37.897Z,9.280028
2022-10-23T05:01:37.906Z,9.280011
2022-10-23T05:02:37.766Z,9.280000
2022-10-23T05:03:37.746Z,9.279986
2022-10-23T05:04:37.726Z,9.279971
2022-10-23T05:05:37.728Z,9.280022
2022-10-23T05:06:37.692Z,9.280074
2022-10-23T05:07:37.661Z,9.280026
2022-10-23T05:08:37.645Z,9.280065
2022-10-23T05:09:37.623Z,9.280043
2022-10-23T05:10:37.634Z,9.280080
2022-10-23T05:11:37.586Z,9.280064
2022-10-23T05:12:37.571Z,9.280077
2022-10-23T05:13:37.552Z,9.280086
2022-10-23T05:14:37.530Z,9.279944
2022-10-23T05:15:37.590Z,9.279992
2022-10-23T05:16:37.490Z,9.279992
2022-10-23T05:17:37.467Z,9.279913
2022-10-23T05:18:37.449Z,9.279922
2022-10-23T05:19:37.432Z,9.279913
2022-10-23T05:20:37.430Z,9.279991
2022-10-23T05:21:37.388Z,9.280061
2022-10-23T05:22:37.372Z,9.280062
2022-10-23T05:23:37.343Z,9.280073
2022-10-23T05:24:37.321Z,9.280046
2022-10-23T05:25:37.331Z,9.280011
2022-10-23T05:26:37.285Z,9.280074
2022-10-23T05:27:37.362Z,9.280047
2022-10-23T05:28:37.259Z,9.280039
2022-10-23T05:29:37.225Z,9.280048
2022-10-23T05:30:37.232Z,9.279989
2022-10-23T05:31:37.196Z,9.280008
2022-10-23T05:32:37.163Z,9.279963
2022-10-23T05:33:37.151Z,9.279981
2022-10-23T05:34:37.120Z,9.279977
2022-10-23T05:35:37.128Z,9.279990
2022-10-23T05:36:37.082Z,9.279940
2022-10-23T05:37:37.062Z,9.279967
2022-10-23T05:38:37.056Z,9.280092
2022-10-23T05:39:37.034Z,9.280042
2022-10-23T05:40:37.039Z,9.280062
2022-10-23T05:41:36.984Z,9.279973
2022-10-23T05:42:39.505Z,9.279926
2022-10-23T05:43:36.959Z,9.280014
2022-10-23T05:44:36.922Z,9.279973
2022-10-23T05:45:36.895Z,9.279893
2022-10-23T05:46:36.901Z,9.279870
2022-10-23T05:47:36.856Z,9.279968
2022-10-23T05:48:36.840Z,9.280034
2022-10-23T05:49:36.815Z,9.280125
2022-10-23T05:50:36.800Z,9.280052
2022-10-23T05:51:36.807Z,9.280064
2022-10-23T05:52:36.758Z,9.279999
2022-10-23T05:53:38.906Z,9.279954
2022-10-23T05:54:37.721Z,9.279937
2022-10-23T05:55:36.700Z,9.280006
2022-10-23T05:56:36.703Z,9.279956
2022-10-23T05:57:36.658Z,9.279959
2022-10-23T05:58:36.638Z,9.279945
2022-10-23T05:59:36.620Z,9.279924
2022-10-23T06:00:36.599Z,9.279865
2022-10-23T06:01:36.815Z,9.279830
2022-10-23T06:02:36.644Z,9.279992
2022-10-23T06:03:36.540Z,9.279921
2022-10-23T06:04:36.520Z,9.279964
2022-10-23T06:05:36.536Z,9.279884
2022-10-23T06:06:36.508Z,9.279934
2022-10-23T06:07:36.464Z,9.279895
2022-10-23T06:08:36.446Z,9.279885
2022-10-23T06:09:36.432Z,9.279867
2022-10-23T06:10:36.403Z,9.279888
2022-10-23T06:11:36.407Z,9.279831
2022-10-23T06:12:36.361Z,9.279778
2022-10-23T06:13:36.351Z,9.279796
2022-10-23T06:14:36.331Z,9.279811
2022-10-23T06:15:36.303Z,9.279866
2022-10-23T06:16:36.307Z,9.279803
2022-10-23T06:17:36.250Z,9.279908
2022-10-23T06:18:37.238Z,9.279989
2022-10-23T06:19:36.339Z,9.280047
2022-10-23T06:20:36.197Z,9.280020
2022-10-23T06:21:36.210Z,9.279963
2022-10-23T06:22:36.160Z,9.279973
2022-10-23T06:23:36.139Z,9.279885
2022-10-23T06:24:36.119Z,9.279923
2022-10-23T06:25:36.095Z,9.279866
2022-10-23T06:26:36.108Z,9.279907
2022-10-23T06:27:36.057Z,9.279976
2022-10-23T06:28:36.031Z,9.280046
2022-10-23T06:29:36.018Z,9.280007
2022-10-23T06:30:36.012Z,9.279977
2022-10-23T06:31:36.018Z,9.279796
2022-10-23T06:32:35.953Z,9.280002
2022-10-23T06:33:35.933Z,9.280033
2022-10-23T06:34:35.913Z,9.279899
2022-10-23T06:35:35.903Z,9.279879
2022-10-23T06:36:35.898Z,9.279923
2022-10-23T06:37:35.855Z,9.279881
2022-10-23T06:38:35.830Z,9.280045
2022-10-23T06:39:35.816Z,9.280067
2022-10-23T06:40:35.789Z,9.280004
2022-10-23T06:41:35.791Z,9.280042
2022-10-23T06:42:35.746Z,9.279951
2022-10-23T06:43:35.728Z,9.279984
2022-10-23T06:44:35.703Z,9.280157
2022-10-23T06:45:35.686Z,9.279975
2022-10-23T06:46:35.689Z,9.279936
2022-10-23T06:47:35.647Z,9.279914
2022-10-23T06:48:35.622Z,9.279874
2022-10-23T06:49:35.597Z,9.279943
2022-10-23T06:50:35.581Z,9.279902
2022-10-23T06:51:35.583Z,9.279869
2022-10-23T06:52:46.527Z,9.279956
2022-10-23T06:53:37.517Z,9.279848
2022-10-23T06:54:35.492Z,9.279754
2022-10-23T06:55:35.477Z,9.279754
2022-10-23T06:56:35.476Z,9.279901
2022-10-23T06:57:35.430Z,9.279968
2022-10-23T06:58:35.407Z,9.279964
2022-10-23T06:59:35.386Z,9.280066
2022-10-23T07:00:35.413Z,9.279948
2022-10-23T07:01:35.615Z,9.279930
2022-10-23T07:02:35.315Z,9.279943
2022-10-23T07:03:35.295Z,9.279922
2022-10-23T07:04:35.268Z,9.279976
2022-10-23T07:05:35.246Z,9.279986
2022-10-23T07:06:35.258Z,9.279936
2022-10-23T07:07:35.209Z,9.279900
2022-10-23T07:08:35.192Z,9.279826
2022-10-23T07:09:35.165Z,9.279986
2022-10-23T07:10:35.145Z,9.279935
2022-10-23T07:11:35.151Z,9.280028
2022-10-23T07:12:35.100Z,9.279918
2022-10-23T07:13:35.083Z,9.279939
2022-10-23T07:14:35.058Z,9.279862
2022-10-23T07:15:35.039Z,9.279859
2022-10-23T07:16:35.042Z,9.279901
2022-10-23T07:17:34.997Z,9.279997
2022-10-23T07:19:35.948Z,9.279881
2022-10-23T07:20:34.924Z,9.279919
2022-10-23T07:21:34.929Z,9.279924
2022-10-23T07:22:34.882Z,9.279976
2022-10-23T07:23:34.857Z,9.279971
2022-10-23T07:24:34.836Z,9.280026
2022-10-23T07:25:34.810Z,9.280030
2022-10-23T07:26:34.817Z,9.280046
2022-10-23T07:27:34.767Z,9.279952
2022-10-23T07:28:34.750Z,9.279966
2022-10-23T07:29:34.728Z,9.280112
2022-10-23T07:30:34.720Z,9.279941
2022-10-23T07:31:34.713Z,9.279955
2022-10-23T07:32:34.668Z,9.279957
2022-10-23T07:33:34.650Z,9.280084
2022-10-23T07:34:34.635Z,9.280096
2022-10-23T07:35:37.217Z,9.280048
2022-10-23T07:36:34.616Z,9.279974
2022-10-23T07:37:34.569Z,9.279982
2022-10-23T07:38:34.550Z,9.280005
2022-10-23T07:39:34.537Z,9.279963
2022-10-23T07:40:34.517Z,9.280001
2022-10-23T07:41:34.529Z,9.279948
2022-10-23T07:42:34.508Z,9.279937
2022-10-23T07:43:34.464Z,9.279871
2022-10-23T07:44:34.438Z,9.279879
2022-10-23T07:45:35.250Z,9.279865
2022-10-23T07:46:34.403Z,9.279901
2022-10-23T07:47:34.409Z,9.279892
2022-10-23T07:48:34.362Z,9.279945
2022-10-23T07:49:34.341Z,9.279921
2022-10-23T07:50:34.328Z,9.279912
2022-10-23T07:51:34.332Z,9.279871
2022-10-23T07:52:35.941Z,9.279879
2022-10-23T07:53:34.273Z,9.279949
2022-10-23T07:54:34.245Z,9.279965
2022-10-23T07:55:34.228Z,9.279940
2022-10-23T07:56:34.239Z,9.279991
2022-10-23T07:57:34.195Z,9.279992
2022-10-23T07:58:34.174Z,9.279933
2022-10-23T07:59:37.161Z,9.279845
2022-10-23T08:00:35.136Z,9.279894
2022-10-23T08:01:34.244Z,9.279910
2022-10-23T08:02:34.165Z,9.279930
2022-10-23T08:03:34.088Z,9.279979
2022-10-23T08:04:34.064Z,9.279895
2022-10-23T08:05:34.044Z,9.279840
2022-10-23T08:06:34.064Z,9.279935
2022-10-23T08:07:34.002Z,9.279842
2022-10-23T08:08:34.055Z,9.279893
2022-10-23T08:09:33.968Z,9.279960
2022-10-23T08:10:33.951Z,9.279900
2022-10-23T08:11:33.958Z,9.279943
2022-10-23T08:12:33.918Z,9.279878
2022-10-23T08:13:33.899Z,9.279941
2022-10-23T08:14:33.879Z,9.279987
2022-10-23T08:15:33.862Z,9.279930
2022-10-23T08:16:33.873Z,9.279963
2022-10-23T08:17:33.820Z,9.279955
2022-10-23T08:18:33.807Z,9.279832
2022-10-23T08:19:33.788Z,9.279949
2022-10-23T08:20:33.768Z,9.279942
2022-10-23T08:21:33.778Z,9.279984
2022-10-23T08:22:33.722Z,9.279986
2022-10-23T08:23:33.709Z,9.279947
2022-10-23T08:24:33.696Z,9.279947
2022-10-23T08:25:33.679Z,9.279952
2022-10-23T08:26:33.679Z,9.279945
2022-10-23T08:27:33.635Z,9.279949
2022-10-23T08:28:33.615Z,9.279911
2022-10-23T08:29:33.596Z,9.280023
2022-10-23T08:30:33.580Z,9.280018
2022-10-23T08:31:33.588Z,9.280004
2022-10-23T08:32:33.557Z,9.280046
2022-10-23T08:33:33.536Z,9.280009
2022-10-23T08:34:33.502Z,9.279957
2022-10-23T08:35:33.483Z,9.279867
2022-10-23T08:36:33.500Z,9.279877
2022-10-23T08:37:33.446Z,9.279913
2022-10-23T08:38:33.426Z,9.279934
2022-10-23T08:39:35.124Z,9.279891
2022-10-23T08:40:33.433Z,9.279944
2022-10-23T08:41:33.409Z,9.279984
2022-10-23T08:42:33.373Z,9.280001
2022-10-23T08:43:33.352Z,9.279911
2022-10-23T08:44:33.326Z,9.279961
2022-10-23T08:45:33.291Z,9.279971
2022-10-23T08:46:34.315Z,9.280002
2022-10-23T08:47:33.265Z,9.279974
2022-10-23T08:48:33.258Z,9.280013
2022-10-23T08:49:33.233Z,9.280001
2022-10-23T08:50:33.212Z,9.279913
2022-10-23T08:51:33.220Z,9.279970
2022-10-23T08:52:33.171Z,9.280022
2022-10-23T08:53:33.160Z,9.280056
2022-10-23T08:54:33.156Z,9.280096
2022-10-23T08:55:33.120Z,9.280013
2022-10-23T08:56:33.127Z,9.279949
2022-10-23T08:57:33.096Z,9.280042
2022-10-23T08:58:33.059Z,9.280071
2022-10-23T08:59:33.054Z,9.280062
2022-10-23T09:00:33.055Z,9.280045
2022-10-23T09:01:33.144Z,9.280022
2022-10-23T09:02:32.987Z,9.280009
2022-10-23T09:03:32.974Z,9.280074
2022-10-23T09:04:32.950Z,9.279922
2022-10-23T09:05:32.933Z,9.280087
2022-10-23T09:06:32.939Z,9.280114
2022-10-23T09:07:32.907Z,9.280033
2022-10-23T09:08:32.879Z,9.280000
2022-10-23T09:09:32.862Z,9.280078
2022-10-23T09:10:32.842Z,9.280098
2022-10-23T09:11:32.851Z,9.280058
2022-10-23T09:12:32.822Z,9.280085
2022-10-23T09:13:32.785Z,9.280027
2022-10-23T09:14:32.771Z,9.280111
2022-10-23T09:15:32.749Z,9.280140
2022-10-23T09:16:32.771Z,9.280078
2022-10-23T09:17:32.710Z,9.279922
2022-10-23T09:18:32.689Z,9.280003
2022-10-23T09:19:32.666Z,9.280090
2022-10-23T09:20:32.670Z,9.279949
2022-10-23T09:21:32.668Z,9.279915
2022-10-23T09:22:32.615Z,9.280024
2022-10-23T09:23:32.597Z,9.279980
2022-10-23T09:24:32.595Z,9.279983
2022-10-23T09:25:32.559Z,9.279968
2022-10-23T09:26:32.566Z,9.280001
2022-10-23T09:27:32.530Z,9.279998
2022-10-23T09:28:32.495Z,9.279995
2022-10-23T09:29:32.549Z,9.280079
2022-10-23T09:30:32.463Z,9.279952
2022-10-23T09:31:32.462Z,9.280011
2022-10-23T09:32:32.430Z,9.280034
2022-10-23T09:33:32.413Z,9.279963
2022-10-23T09:34:32.384Z,9.279988
2022-10-23T09:35:32.372Z,9.279998
2022-10-23T09:36:32.371Z,9.279954
2022-10-23T09:37:32.323Z,9.279973
2022-10-23T09:38:33.328Z,9.279852
2022-10-23T09:39:32.289Z,9.279859
2022-10-23T09:40:32.267Z,9.279914
2022-10-23T09:41:32.322Z,9.280043
2022-10-23T09:42:32.237Z,9.279953
2022-10-23T09:43:32.208Z,9.280041
2022-10-23T09:44:32.226Z,9.280022
2022-10-23T09:45:32.229Z,9.279913
2022-10-23T09:46:32.183Z,9.279924
2022-10-23T09:47:32.130Z,9.279849
2022-10-23T09:48:32.144Z,9.279799
2022-10-23T09:49:32.100Z,9.279824
2022-10-23T09:50:32.080Z,9.279971
2022-10-23T09:51:32.096Z,9.279990
2022-10-23T09:52:32.037Z,9.280101
2022-10-23T09:53:32.071Z,9.280015
2022-10-23T09:54:32.009Z,9.279992
2022-10-23T09:55:31.980Z,9.280087
2022-10-23T09:56:31.988Z,9.279860
2022-10-23T09:57:31.954Z,9.279712
2022-10-23T09:58:31.926Z,9.279789
2022-10-23T09:59:31.914Z,9.279890
2022-10-23T10:00:31.883Z,9.279649
2022-10-23T10:01:32.033Z,9.279726
2022-10-23T10:02:31.841Z,9.279392
2022-10-23T10:03:31.833Z,9.279604
2022-10-23T10:04:31.802Z,9.279491
2022-10-23T10:05:32.787Z,9.279487
2022-10-23T10:06:31.833Z,9.279984
2022-10-23T10:07:34.676Z,9.279823
2022-10-23T10:08:31.750Z,9.279860
2022-10-23T10:09:31.725Z,9.279882
2022-10-23T10:10:31.706Z,9.279852
2022-10-23T10:11:31.708Z,9.279928
2022-10-23T10:12:31.656Z,9.279889
2022-10-23T10:13:31.649Z,9.279879
2022-10-23T10:14:31.626Z,9.279850
2022-10-23T10:15:31.622Z,9.279912
2022-10-23T10:16:31.688Z,9.279905
2022-10-23T10:17:31.559Z,9.279935
2022-10-23T10:18:31.567Z,9.279906
2022-10-23T10:19:31.530Z,9.279921
2022-10-23T10:20:31.511Z,9.279962
2022-10-23T10:21:31.521Z,9.279945
2022-10-23T10:22:31.463Z,9.279959
2022-10-23T10:23:31.466Z,9.279942
2022-10-23T10:24:31.449Z,9.279880
2022-10-23T10:25:31.445Z,9.279938
2022-10-23T10:26:31.411Z,9.279898
2022-10-23T10:27:31.437Z,9.279742
2022-10-23T10:28:31.361Z,9.279908
2022-10-23T10:29:31.345Z,9.279759
2022-10-23T10:30:31.339Z,9.279774
2022-10-23T10:31:31.322Z,9.279796
2022-10-23T10:32:31.281Z,9.279816
2022-10-23T10:33:31.255Z,9.280005
2022-10-23T10:34:31.245Z,9.279917
2022-10-23T10:35:31.237Z,9.279930
2022-10-23T10:36:31.233Z,9.279913
2022-10-23T10:37:31.186Z,9.279924
2022-10-23T10:38:31.174Z,9.279945
2022-10-23T10:39:31.204Z,9.279902
2022-10-23T10:40:31.125Z,9.279965
2022-10-23T10:41:31.148Z,9.279980
2022-10-23T10:42:31.090Z,9.279985
2022-10-23T10:43:31.069Z,9.279952
2022-10-23T10:44:31.078Z,9.279946
2022-10-23T10:45:31.036Z,9.279910
2022-10-23T10:46:31.041Z,9.279917
2022-10-23T10:47:31.003Z,9.279925
2022-10-23T10:48:30.993Z,9.279903
2022-10-23T10:49:30.959Z,9.279916
2022-10-23T10:50:30.940Z,9.280005
2022-10-23T10:51:30.951Z,9.280016
2022-10-23T10:52:30.902Z,9.279948
2022-10-23T10:53:30.884Z,9.279917
2022-10-23T10:54:30.874Z,9.279944
2022-10-23T10:55:30.849Z,9.279889
2022-10-23T10:56:30.855Z,9.279860
2022-10-23T10:57:30.844Z,9.279915
2022-10-23T10:58:30.784Z,9.279933
2022-10-23T10:59:31.354Z,9.279876
2022-10-23T11:00:30.757Z,9.279907
2022-10-23T11:01:30.871Z,9.279958
2022-10-23T11:02:30.743Z,9.279934
2022-10-23T11:03:30.690Z,9.279954
2022-10-23T11:04:30.683Z,9.279921
2022-10-23T11:05:30.656Z,9.279968
2022-10-23T11:06:30.660Z,9.279916
2022-10-23T11:07:30.625Z,9.279911
2022-10-23T11:08:31.496Z,9.279910
2022-10-23T11:09:30.587Z,9.279928
2022-10-23T11:10:30.557Z,9.279982
2022-10-23T11:11:30.566Z,9.280011
2022-10-23T11:12:30.533Z,9.279955
2022-10-23T11:13:30.505Z,9.279977
2022-10-23T11:14:30.502Z,9.280023
2022-10-23T11:15:30.466Z,9.279985
2022-10-23T11:16:30.476Z,9.279991
2022-10-23T11:17:30.424Z,9.279954
2022-10-23T11:18:30.441Z,9.279947
2022-10-23T11:19:30.440Z,9.279950
2022-10-23T11:20:30.376Z,9.279983
2022-10-23T11:21:30.355Z,9.279948
2022-10-23T11:22:30.331Z,9.279945
2022-10-23T11:23:30.339Z,9.279860
2022-10-23T11:24:30.292Z,9.279951
2022-10-23T11:25:30.357Z,9.279870
2022-10-23T11:26:30.289Z,9.279866
2022-10-23T11:27:30.237Z,9.279879
2022-10-23T11:28:30.215Z,9.279925
2022-10-23T11:29:30.200Z,9.279986
2022-10-23T11:30:30.186Z,9.279959
2022-10-23T11:31:30.184Z,9.279971
2022-10-23T11:32:30.161Z,9.279950
2022-10-23T11:33:30.121Z,9.279948
2022-10-23T11:34:30.106Z,9.279887
2022-10-23T11:35:30.086Z,9.279933
2022-10-23T11:36:30.092Z,9.279972
2022-10-23T11:37:30.048Z,9.279913
2022-10-23T11:38:30.034Z,9.279902
2022-10-23T11:39:30.036Z,9.279881
2022-10-23T11:40:29.987Z,9.279872
2022-10-23T11:41:29.966Z,9.279831
2022-10-23T11:42:29.943Z,9.279898
2022-10-23T11:43:29.924Z,9.279971
2022-10-23T11:44:29.940Z,9.279914
2022-10-23T11:45:29.891Z,9.279922
2022-10-23T11:46:29.901Z,9.279922
2022-10-23T11:47:29.853Z,9.279884
2022-10-23T11:48:29.837Z,9.279896